KXNA/XNA METAR and TAF weather

Enter ICAO airport designator
Station Type Date Time Source
KXNA METAR 2021/07/30 22:53 UTC NOAA

KXNA 302253Z 21003KT 10SM CLR 33/21 A3007 RMK AO2 SLP166 T03330211


Station Type Date Time Source
KXNA Decoded METAR 2021/07/30 22:53 UTC NOAA

NORTHWEST ARKANSAS REGIONAL, AR, United States (KXNA) 36-17N 94-18W
Jul 30, 2021 - 06:53 PM EDT / 2021.07.30 2253 UTC
Wind: from the SSW (210 degrees) at 3 MPH (3 KT):0
Visibility: 10 mile(s):0
Sky conditions: clear
Temperature: 91.9 F (33.3 C)
Heat index: 97.3 F (36.3 C):1
Dew Point: 70.0 F (21.1 C)
Relative Humidity: 48%
Pressure (altimeter): 30.07 in. Hg (1018 hPa)
ob: KXNA 302253Z 21003KT 10SM CLR 33/21 A3007 RMK AO2 SLP166 T03330211
cycle: 23

Station Type Date Time Source
KXNA TAF 2021/07/30 18:24 UTC NOAA

TAF KXNA 301721Z 3018/3118 27009KT P6SM FEW040 SCT250
FM310100 VRB03KT P6SM SKC

Example: see airport list